sensor_id;sensor_type;location;lat;lon;timestamp;P1;durP1;ratioP1;P2;durP2;ratioP2
64351;SDS011;50680;52.626;-8.668;2022-12-24T00:01:00;20.15;;;2.30;;
64351;SDS011;50680;52.626;-8.668;2022-12-24T00:03:27;11.73;;;1.95;;
64351;SDS011;50680;52.626;-8.668;2022-12-24T00:05:54;11.65;;;2.05;;
64351;SDS011;50680;52.626;-8.668;2022-12-24T00:08:21;16.63;;;2.17;;
64351;SDS011;50680;52.626;-8.668;2022-12-24T00:10:49;23.02;;;4.80;;
64351;SDS011;50680;52.626;-8.668;2022-12-24T00:13:17;31.38;;;6.28;;
64351;SDS011;50680;52.626;-8.668;2022-12-24T00:15:45;20.23;;;5.82;;
64351;SDS011;50680;52.626;-8.668;2022-12-24T00:18:12;18.15;;;4.10;;
64351;SDS011;50680;52.626;-8.668;2022-12-24T00:20:39;21.63;;;5.55;;
64351;SDS011;50680;52.626;-8.668;2022-12-24T00:23:06;19.90;;;3.92;;
64351;SDS011;50680;52.626;-8.668;2022-12-24T00:25:33;23.30;;;4.43;;
64351;SDS011;50680;52.626;-8.668;2022-12-24T00:28:00;25.83;;;5.07;;
64351;SDS011;50680;52.626;-8.668;2022-12-24T00:30:27;15.18;;;4.32;;
64351;SDS011;50680;52.626;-8.668;2022-12-24T00:32:54;26.15;;;6.65;;
64351;SDS011;50680;52.626;-8.668;2022-12-24T00:35:22;18.10;;;4.07;;
64351;SDS011;50680;52.626;-8.668;2022-12-24T00:37:49;18.48;;;4.10;;
64351;SDS011;50680;52.626;-8.668;2022-12-24T00:40:17;19.02;;;4.00;;
64351;SDS011;50680;52.626;-8.668;2022-12-24T00:42:44;21.48;;;5.20;;
64351;SDS011;50680;52.626;-8.668;2022-12-24T00:45:11;20.98;;;5.30;;
64351;SDS011;50680;52.626;-8.668;2022-12-24T00:47:38;19.80;;;4.97;;
64351;SDS011;50680;52.626;-8.668;2022-12-24T00:50:05;16.98;;;3.70;;
64351;SDS011;50680;52.626;-8.668;2022-12-24T00:52:32;18.60;;;3.40;;
64351;SDS011;50680;52.626;-8.668;2022-12-24T00:54:59;13.13;;;3.72;;
64351;SDS011;50680;52.626;-8.668;2022-12-24T00:57:26;15.35;;;2.50;;
64351;SDS011;50680;52.626;-8.668;2022-12-24T00:59:53;14.43;;;2.75;;
64351;SDS011;50680;52.626;-8.668;2022-12-24T01:02:20;13.48;;;2.75;;
64351;SDS011;50680;52.626;-8.668;2022-12-24T01:04:48;17.55;;;4.65;;
64351;SDS011;50680;52.626;-8.668;2022-12-24T01:07:33;19.80;;;4.13;;
64351;SDS011;50680;52.626;-8.668;2022-12-24T01:10:00;17.60;;;3.20;;
64351;SDS011;50680;52.626;-8.668;2022-12-24T01:12:27;18.23;;;2.80;;
64351;SDS011;50680;52.626;-8.668;2022-12-24T01:14:54;23.52;;;4.28;;
64351;SDS011;50680;52.626;-8.668;2022-12-24T01:17:20;16.63;;;2.97;;
64351;SDS011;50680;52.626;-8.668;2022-12-24T01:19:47;15.80;;;2.78;;
64351;SDS011;50680;52.626;-8.668;2022-12-24T01:22:14;16.23;;;2.20;;
64351;SDS011;50680;52.626;-8.668;2022-12-24T01:24:41;18.83;;;3.45;;
64351;SDS011;50680;52.626;-8.668;2022-12-24T01:27:08;13.63;;;2.42;;
64351;SDS011;50680;52.626;-8.668;2022-12-24T01:29:35;13.80;;;2.47;;
64351;SDS011;50680;52.626;-8.668;2022-12-24T01:32:02;24.33;;;4.88;;
64351;SDS011;50680;52.626;-8.668;2022-12-24T01:34:29;19.77;;;3.92;;
64351;SDS011;50680;52.626;-8.668;2022-12-24T01:36:56;13.85;;;2.05;;
64351;SDS011;50680;52.626;-8.668;2022-12-24T01:39:23;19.33;;;3.67;;
64351;SDS011;50680;52.626;-8.668;2022-12-24T01:41:50;16.50;;;3.17;;
64351;SDS011;50680;52.626;-8.668;2022-12-24T01:44:38;14.45;;;1.90;;
64351;SDS011;50680;52.626;-8.668;2022-12-24T01:47:11;19.27;;;2.40;;
64351;SDS011;50680;52.626;-8.668;2022-12-24T01:50:03;24.80;;;4.28;;
64351;SDS011;50680;52.626;-8.668;2022-12-24T01:52:40;34.90;;;5.50;;
64351;SDS011;50680;52.626;-8.668;2022-12-24T01:55:12;16.02;;;2.45;;
64351;SDS011;50680;52.626;-8.668;2022-12-24T01:57:47;16.55;;;3.38;;
64351;SDS011;50680;52.626;-8.668;2022-12-24T02:00:20;12.18;;;2.67;;
64351;SDS011;50680;52.626;-8.668;2022-12-24T02:02:48;20.88;;;2.97;;
64351;SDS011;50680;52.626;-8.668;2022-12-24T02:05:18;26.30;;;6.60;;
64351;SDS011;50680;52.626;-8.668;2022-12-24T02:07:46;23.27;;;3.53;;
64351;SDS011;50680;52.626;-8.668;2022-12-24T02:10:14;29.95;;;4.68;;
64351;SDS011;50680;52.626;-8.668;2022-12-24T02:12:42;19.02;;;3.40;;
64351;SDS011;50680;52.626;-8.668;2022-12-24T02:15:12;15.23;;;2.72;;
64351;SDS011;50680;52.626;-8.668;2022-12-24T02:20:29;17.98;;;2.85;;
64351;SDS011;50680;52.626;-8.668;2022-12-24T02:29:02;24.58;;;3.10;;
64351;SDS011;50680;52.626;-8.668;2022-12-24T02:32:34;19.73;;;3.30;;
64351;SDS011;50680;52.626;-8.668;2022-12-24T02:34:48;34.05;;;7.53;;
64351;SDS011;50680;52.626;-8.668;2022-12-24T02:37:24;29.73;;;3.60;;
64351;SDS011;50680;52.626;-8.668;2022-12-24T02:39:57;25.67;;;3.50;;
64351;SDS011;50680;52.626;-8.668;2022-12-24T02:42:31;21.17;;;2.88;;
64351;SDS011;50680;52.626;-8.668;2022-12-24T02:45:06;33.40;;;3.10;;
64351;SDS011;50680;52.626;-8.668;2022-12-24T02:47:37;22.15;;;3.10;;
64351;SDS011;50680;52.626;-8.668;2022-12-24T02:50:06;26.25;;;3.97;;
64351;SDS011;50680;52.626;-8.668;2022-12-24T02:52:35;40.22;;;5.85;;
64351;SDS011;50680;52.626;-8.668;2022-12-24T03:00:17;18.70;;;3.38;;
64351;SDS011;50680;52.626;-8.668;2022-12-24T03:02:52;40.10;;;3.88;;
64351;SDS011;50680;52.626;-8.668;2022-12-24T03:08:28;41.35;;;7.93;;
64351;SDS011;50680;52.626;-8.668;2022-12-24T03:11:06;34.05;;;5.93;;
64351;SDS011;50680;52.626;-8.668;2022-12-24T03:13:35;37.58;;;5.55;;
64351;SDS011;50680;52.626;-8.668;2022-12-24T03:16:04;37.40;;;6.32;;
64351;SDS011;50680;52.626;-8.668;2022-12-24T03:18:35;32.08;;;4.03;;
64351;SDS011;50680;52.626;-8.668;2022-12-24T03:21:05;24.73;;;3.80;;
64351;SDS011;50680;52.626;-8.668;2022-12-24T03:23:36;26.30;;;4.07;;
64351;SDS011;50680;52.626;-8.668;2022-12-24T03:26:05;22.45;;;3.30;;
64351;SDS011;50680;52.626;-8.668;2022-12-24T03:28:36;30.92;;;3.38;;
64351;SDS011;50680;52.626;-8.668;2022-12-24T03:31:05;31.92;;;4.15;;
64351;SDS011;50680;52.626;-8.668;2022-12-24T03:33:33;28.58;;;4.15;;
64351;SDS011;50680;52.626;-8.668;2022-12-24T03:36:00;30.33;;;3.80;;
64351;SDS011;50680;52.626;-8.668;2022-12-24T03:38:28;23.80;;;2.92;;
64351;SDS011;50680;52.626;-8.668;2022-12-24T03:40:54;26.88;;;3.60;;
64351;SDS011;50680;52.626;-8.668;2022-12-24T03:43:22;20.75;;;3.45;;
64351;SDS011;50680;52.626;-8.668;2022-12-24T03:45:48;27.33;;;3.45;;
64351;SDS011;50680;52.626;-8.668;2022-12-24T03:48:15;30.17;;;5.70;;
64351;SDS011;50680;52.626;-8.668;2022-12-24T03:50:42;27.70;;;2.58;;
64351;SDS011;50680;52.626;-8.668;2022-12-24T03:53:09;33.28;;;4.20;;
64351;SDS011;50680;52.626;-8.668;2022-12-24T03:55:36;28.33;;;3.35;;
64351;SDS011;50680;52.626;-8.668;2022-12-24T03:58:04;17.52;;;2.88;;
64351;SDS011;50680;52.626;-8.668;2022-12-24T04:00:31;31.23;;;3.45;;
64351;SDS011;50680;52.626;-8.668;2022-12-24T04:02:58;28.33;;;4.32;;
64351;SDS011;50680;52.626;-8.668;2022-12-24T04:05:25;19.27;;;3.20;;
64351;SDS011;50680;52.626;-8.668;2022-12-24T04:07:52;23.60;;;3.50;;
64351;SDS011;50680;52.626;-8.668;2022-12-24T04:10:19;20.73;;;2.80;;
64351;SDS011;50680;52.626;-8.668;2022-12-24T04:12:46;34.30;;;4.95;;
64351;SDS011;50680;52.626;-8.668;2022-12-24T04:15:13;34.67;;;3.80;;
64351;SDS011;50680;52.626;-8.668;2022-12-24T04:17:39;22.95;;;3.30;;
64351;SDS011;50680;52.626;-8.668;2022-12-24T04:20:06;28.77;;;3.78;;
64351;SDS011;50680;52.626;-8.668;2022-12-24T04:22:34;26.17;;;3.47;;
64351;SDS011;50680;52.626;-8.668;2022-12-24T04:25:01;25.38;;;2.85;;
64351;SDS011;50680;52.626;-8.668;2022-12-24T04:27:27;35.20;;;4.72;;
64351;SDS011;50680;52.626;-8.668;2022-12-24T04:29:56;33.85;;;5.15;;
64351;SDS011;50680;52.626;-8.668;2022-12-24T04:32:24;28.05;;;3.70;;
64351;SDS011;50680;52.626;-8.668;2022-12-24T04:34:52;24.85;;;3.35;;
64351;SDS011;50680;52.626;-8.668;2022-12-24T04:37:19;28.50;;;3.65;;
64351;SDS011;50680;52.626;-8.668;2022-12-24T04:39:46;34.17;;;4.25;;
64351;SDS011;50680;52.626;-8.668;2022-12-24T04:42:12;25.08;;;3.22;;
64351;SDS011;50680;52.626;-8.668;2022-12-24T04:44:39;30.33;;;3.80;;
64351;SDS011;50680;52.626;-8.668;2022-12-24T04:47:06;27.30;;;2.97;;
64351;SDS011;50680;52.626;-8.668;2022-12-24T04:49:33;26.67;;;3.25;;
64351;SDS011;50680;52.626;-8.668;2022-12-24T04:52:00;24.85;;;3.75;;
64351;SDS011;50680;52.626;-8.668;2022-12-24T04:54:27;30.85;;;3.53;;
64351;SDS011;50680;52.626;-8.668;2022-12-24T04:56:53;25.38;;;2.95;;
64351;SDS011;50680;52.626;-8.668;2022-12-24T04:59:20;29.15;;;3.03;;
64351;SDS011;50680;52.626;-8.668;2022-12-24T05:01:47;25.50;;;2.45;;
64351;SDS011;50680;52.626;-8.668;2022-12-24T05:04:14;31.13;;;6.13;;
64351;SDS011;50680;52.626;-8.668;2022-12-24T05:06:41;29.00;;;3.60;;
64351;SDS011;50680;52.626;-8.668;2022-12-24T05:09:08;26.33;;;3.70;;
64351;SDS011;50680;52.626;-8.668;2022-12-24T05:11:34;36.67;;;4.57;;
64351;SDS011;50680;52.626;-8.668;2022-12-24T05:14:01;21.95;;;3.75;;
64351;SDS011;50680;52.626;-8.668;2022-12-24T05:16:28;19.45;;;2.60;;
64351;SDS011;50680;52.626;-8.668;2022-12-24T05:18:55;27.63;;;3.17;;
64351;SDS011;50680;52.626;-8.668;2022-12-24T05:21:24;25.30;;;2.67;;
64351;SDS011;50680;52.626;-8.668;2022-12-24T05:23:51;21.38;;;2.75;;
64351;SDS011;50680;52.626;-8.668;2022-12-24T05:29:09;23.95;;;2.78;;
64351;SDS011;50680;52.626;-8.668;2022-12-24T05:31:40;26.00;;;3.10;;
64351;SDS011;50680;52.626;-8.668;2022-12-24T05:34:08;22.00;;;3.13;;
64351;SDS011;50680;52.626;-8.668;2022-12-24T05:36:36;34.25;;;6.00;;
64351;SDS011;50680;52.626;-8.668;2022-12-24T05:39:03;24.10;;;3.08;;
64351;SDS011;50680;52.626;-8.668;2022-12-24T05:41:38;18.70;;;2.13;;
64351;SDS011;50680;52.626;-8.668;2022-12-24T05:44:05;20.83;;;2.88;;
64351;SDS011;50680;52.626;-8.668;2022-12-24T05:46:32;20.85;;;1.98;;
64351;SDS011;50680;52.626;-8.668;2022-12-24T05:48:59;26.40;;;2.90;;
64351;SDS011;50680;52.626;-8.668;2022-12-24T05:51:26;28.60;;;2.85;;
64351;SDS011;50680;52.626;-8.668;2022-12-24T05:53:53;20.75;;;2.90;;
64351;SDS011;50680;52.626;-8.668;2022-12-24T05:56:21;24.20;;;2.63;;
64351;SDS011;50680;52.626;-8.668;2022-12-24T05:58:49;19.67;;;2.78;;
64351;SDS011;50680;52.626;-8.668;2022-12-24T06:01:17;28.60;;;3.38;;
64351;SDS011;50680;52.626;-8.668;2022-12-24T06:03:45;35.35;;;3.65;;
64351;SDS011;50680;52.626;-8.668;2022-12-24T06:06:13;25.13;;;3.83;;
64351;SDS011;50680;52.626;-8.668;2022-12-24T06:08:44;28.30;;;2.88;;
64351;SDS011;50680;52.626;-8.668;2022-12-24T06:11:12;27.17;;;3.25;;
64351;SDS011;50680;52.626;-8.668;2022-12-24T06:13:41;22.77;;;2.83;;
64351;SDS011;50680;52.626;-8.668;2022-12-24T06:16:16;21.48;;;2.97;;
64351;SDS011;50680;52.626;-8.668;2022-12-24T06:18:45;28.35;;;3.88;;
64351;SDS011;50680;52.626;-8.668;2022-12-24T06:21:12;22.27;;;3.22;;
64351;SDS011;50680;52.626;-8.668;2022-12-24T06:23:40;24.08;;;3.65;;
64351;SDS011;50680;52.626;-8.668;2022-12-24T06:26:10;21.58;;;2.58;;
64351;SDS011;50680;52.626;-8.668;2022-12-24T06:28:38;24.50;;;2.50;;
64351;SDS011;50680;52.626;-8.668;2022-12-24T06:31:06;36.10;;;3.67;;
64351;SDS011;50680;52.626;-8.668;2022-12-24T06:33:38;26.55;;;3.10;;
64351;SDS011;50680;52.626;-8.668;2022-12-24T06:36:05;26.70;;;3.55;;
64351;SDS011;50680;52.626;-8.668;2022-12-24T06:38:42;19.35;;;2.05;;
64351;SDS011;50680;52.626;-8.668;2022-12-24T06:41:08;16.00;;;3.60;;
64351;SDS011;50680;52.626;-8.668;2022-12-24T06:43:35;26.17;;;3.15;;
64351;SDS011;50680;52.626;-8.668;2022-12-24T06:46:02;19.23;;;3.92;;
64351;SDS011;50680;52.626;-8.668;2022-12-24T06:48:30;17.17;;;2.70;;
64351;SDS011;50680;52.626;-8.668;2022-12-24T06:50:57;20.55;;;4.10;;
64351;SDS011;50680;52.626;-8.668;2022-12-24T06:53:23;26.48;;;3.15;;
64351;SDS011;50680;52.626;-8.668;2022-12-24T06:55:50;25.17;;;2.55;;
64351;SDS011;50680;52.626;-8.668;2022-12-24T06:58:17;20.95;;;2.55;;
64351;SDS011;50680;52.626;-8.668;2022-12-24T07:00:46;20.15;;;2.50;;
64351;SDS011;50680;52.626;-8.668;2022-12-24T07:03:13;19.67;;;3.78;;
64351;SDS011;50680;52.626;-8.668;2022-12-24T07:05:40;19.90;;;2.83;;
64351;SDS011;50680;52.626;-8.668;2022-12-24T07:08:07;22.30;;;3.40;;
64351;SDS011;50680;52.626;-8.668;2022-12-24T07:10:34;18.85;;;2.65;;
64351;SDS011;50680;52.626;-8.668;2022-12-24T07:13:01;12.77;;;2.95;;
64351;SDS011;50680;52.626;-8.668;2022-12-24T07:15:28;30.00;;;2.40;;
64351;SDS011;50680;52.626;-8.668;2022-12-24T07:17:55;13.52;;;1.67;;
64351;SDS011;50680;52.626;-8.668;2022-12-24T07:20:22;11.88;;;1.75;;
64351;SDS011;50680;52.626;-8.668;2022-12-24T07:22:48;17.38;;;2.28;;
64351;SDS011;50680;52.626;-8.668;2022-12-24T07:25:15;21.13;;;2.75;;
64351;SDS011;50680;52.626;-8.668;2022-12-24T07:27:42;21.05;;;3.03;;
64351;SDS011;50680;52.626;-8.668;2022-12-24T07:30:09;15.80;;;2.15;;
64351;SDS011;50680;52.626;-8.668;2022-12-24T07:32:36;20.35;;;2.50;;
64351;SDS011;50680;52.626;-8.668;2022-12-24T07:35:03;37.40;;;3.67;;
64351;SDS011;50680;52.626;-8.668;2022-12-24T07:37:31;18.05;;;2.50;;
64351;SDS011;50680;52.626;-8.668;2022-12-24T07:39:57;20.08;;;2.35;;
64351;SDS011;50680;52.626;-8.668;2022-12-24T07:42:24;24.27;;;2.50;;
64351;SDS011;50680;52.626;-8.668;2022-12-24T07:44:52;24.77;;;2.50;;
64351;SDS011;50680;52.626;-8.668;2022-12-24T07:47:18;25.52;;;2.78;;
64351;SDS011;50680;52.626;-8.668;2022-12-24T07:49:45;17.90;;;2.22;;
64351;SDS011;50680;52.626;-8.668;2022-12-24T07:52:12;17.85;;;2.67;;
64351;SDS011;50680;52.626;-8.668;2022-12-24T07:54:39;21.25;;;3.25;;
64351;SDS011;50680;52.626;-8.668;2022-12-24T07:57:06;17.20;;;2.35;;
64351;SDS011;50680;52.626;-8.668;2022-12-24T07:59:32;23.30;;;2.72;;
64351;SDS011;50680;52.626;-8.668;2022-12-24T08:01:59;19.38;;;2.97;;
64351;SDS011;50680;52.626;-8.668;2022-12-24T08:04:26;14.60;;;2.25;;
64351;SDS011;50680;52.626;-8.668;2022-12-24T08:06:53;22.13;;;2.20;;
64351;SDS011;50680;52.626;-8.668;2022-12-24T08:09:20;14.57;;;2.85;;
64351;SDS011;50680;52.626;-8.668;2022-12-24T08:11:47;15.95;;;2.35;;
64351;SDS011;50680;52.626;-8.668;2022-12-24T08:14:18;16.42;;;2.63;;
64351;SDS011;50680;52.626;-8.668;2022-12-24T08:16:45;19.52;;;3.10;;
64351;SDS011;50680;52.626;-8.668;2022-12-24T08:19:12;16.05;;;2.60;;
64351;SDS011;50680;52.626;-8.668;2022-12-24T08:21:39;22.10;;;3.13;;
64351;SDS011;50680;52.626;-8.668;2022-12-24T08:24:06;24.45;;;3.10;;
64351;SDS011;50680;52.626;-8.668;2022-12-24T08:26:33;18.58;;;2.47;;
64351;SDS011;50680;52.626;-8.668;2022-12-24T08:29:00;18.77;;;2.55;;
64351;SDS011;50680;52.626;-8.668;2022-12-24T08:31:28;21.17;;;2.38;;
64351;SDS011;50680;52.626;-8.668;2022-12-24T08:33:55;25.33;;;2.90;;
64351;SDS011;50680;52.626;-8.668;2022-12-24T08:36:22;21.90;;;2.33;;
64351;SDS011;50680;52.626;-8.668;2022-12-24T08:38:49;20.40;;;3.03;;
64351;SDS011;50680;52.626;-8.668;2022-12-24T08:41:16;21.65;;;3.05;;
64351;SDS011;50680;52.626;-8.668;2022-12-24T08:43:42;14.77;;;2.38;;
64351;SDS011;50680;52.626;-8.668;2022-12-24T08:46:09;18.40;;;2.28;;
64351;SDS011;50680;52.626;-8.668;2022-12-24T08:48:36;18.90;;;2.75;;
64351;SDS011;50680;52.626;-8.668;2022-12-24T08:51:07;14.50;;;2.20;;
64351;SDS011;50680;52.626;-8.668;2022-12-24T08:53:35;10.73;;;2.50;;
64351;SDS011;50680;52.626;-8.668;2022-12-24T08:56:03;13.70;;;2.28;;
64351;SDS011;50680;52.626;-8.668;2022-12-24T08:58:32;12.27;;;2.53;;
64351;SDS011;50680;52.626;-8.668;2022-12-24T09:01:00;19.25;;;3.38;;
64351;SDS011;50680;52.626;-8.668;2022-12-24T09:03:27;14.88;;;2.53;;
64351;SDS011;50680;52.626;-8.668;2022-12-24T09:05:54;11.23;;;1.70;;
64351;SDS011;50680;52.626;-8.668;2022-12-24T09:08:21;11.27;;;2.33;;
64351;SDS011;50680;52.626;-8.668;2022-12-24T09:10:48;18.52;;;3.10;;
64351;SDS011;50680;52.626;-8.668;2022-12-24T09:13:15;22.48;;;5.30;;
64351;SDS011;50680;52.626;-8.668;2022-12-24T09:15:42;27.38;;;6.05;;
64351;SDS011;50680;52.626;-8.668;2022-12-24T09:18:18;33.15;;;7.85;;
64351;SDS011;50680;52.626;-8.668;2022-12-24T09:20:45;16.73;;;3.70;;
64351;SDS011;50680;52.626;-8.668;2022-12-24T09:23:15;30.42;;;5.43;;
64351;SDS011;50680;52.626;-8.668;2022-12-24T09:25:42;24.95;;;4.82;;
64351;SDS011;50680;52.626;-8.668;2022-12-24T09:28:09;13.15;;;1.58;;
64351;SDS011;50680;52.626;-8.668;2022-12-24T09:30:36;10.02;;;1.60;;
64351;SDS011;50680;52.626;-8.668;2022-12-24T09:33:03;12.70;;;2.13;;
64351;SDS011;50680;52.626;-8.668;2022-12-24T09:35:30;16.73;;;2.53;;
64351;SDS011;50680;52.626;-8.668;2022-12-24T09:37:56;15.20;;;2.58;;
64351;SDS011;50680;52.626;-8.668;2022-12-24T09:40:34;9.32;;;1.50;;
64351;SDS011;50680;52.626;-8.668;2022-12-24T09:43:05;10.82;;;1.40;;
64351;SDS011;50680;52.626;-8.668;2022-12-24T09:45:40;24.33;;;5.28;;
64351;SDS011;50680;52.626;-8.668;2022-12-24T09:48:19;30.83;;;6.68;;
64351;SDS011;50680;52.626;-8.668;2022-12-24T09:53:21;19.25;;;1.92;;
64351;SDS011;50680;52.626;-8.668;2022-12-24T09:55:57;10.70;;;1.77;;
64351;SDS011;50680;52.626;-8.668;2022-12-24T09:59:01;11.43;;;2.03;;
64351;SDS011;50680;52.626;-8.668;2022-12-24T10:01:23;13.23;;;2.15;;
64351;SDS011;50680;52.626;-8.668;2022-12-24T10:03:50;13.07;;;1.73;;
64351;SDS011;50680;52.626;-8.668;2022-12-24T10:06:19;10.88;;;1.92;;
64351;SDS011;50680;52.626;-8.668;2022-12-24T10:11:35;13.95;;;2.08;;
64351;SDS011;50680;52.626;-8.668;2022-12-24T10:23:22;17.88;;;4.28;;
64351;SDS011;50680;52.626;-8.668;2022-12-24T10:26:04;34.78;;;7.85;;
64351;SDS011;50680;52.626;-8.668;2022-12-24T10:31:08;19.23;;;4.03;;
64351;SDS011;50680;52.626;-8.668;2022-12-24T10:36:13;21.40;;;6.55;;
64351;SDS011;50680;52.626;-8.668;2022-12-24T10:38:44;34.80;;;10.57;;
64351;SDS011;50680;52.626;-8.668;2022-12-24T10:41:12;42.03;;;10.07;;
64351;SDS011;50680;52.626;-8.668;2022-12-24T10:43:40;9.65;;;2.67;;
64351;SDS011;50680;52.626;-8.668;2022-12-24T10:46:17;22.05;;;5.88;;
64351;SDS011;50680;52.626;-8.668;2022-12-24T10:51:22;9.30;;;1.77;;
64351;SDS011;50680;52.626;-8.668;2022-12-24T10:56:39;2.97;;;0.77;;
64351;SDS011;50680;52.626;-8.668;2022-12-24T10:59:42;3.20;;;0.82;;
64351;SDS011;50680;52.626;-8.668;2022-12-24T11:02:23;4.00;;;1.02;;
64351;SDS011;50680;52.626;-8.668;2022-12-24T11:04:51;9.95;;;1.90;;
64351;SDS011;50680;52.626;-8.668;2022-12-24T11:07:19;4.07;;;1.27;;
64351;SDS011;50680;52.626;-8.668;2022-12-24T11:09:57;8.07;;;1.75;;
64351;SDS011;50680;52.626;-8.668;2022-12-24T11:15:05;6.82;;;1.92;;
64351;SDS011;50680;52.626;-8.668;2022-12-24T11:17:57;16.40;;;6.55;;
64351;SDS011;50680;52.626;-8.668;2022-12-24T11:20:26;21.42;;;8.65;;
64351;SDS011;50680;52.626;-8.668;2022-12-24T11:22:54;10.65;;;2.55;;
64351;SDS011;50680;52.626;-8.668;2022-12-24T11:25:29;23.55;;;9.60;;
64351;SDS011;50680;52.626;-8.668;2022-12-24T11:28:11;41.25;;;13.98;;
64351;SDS011;50680;52.626;-8.668;2022-12-24T11:30:56;5.90;;;2.83;;
64351;SDS011;50680;52.626;-8.668;2022-12-24T11:33:48;22.27;;;7.90;;
64351;SDS011;50680;52.626;-8.668;2022-12-24T11:36:22;18.60;;;6.03;;
64351;SDS011;50680;52.626;-8.668;2022-12-24T11:38:55;19.70;;;8.57;;
64351;SDS011;50680;52.626;-8.668;2022-12-24T11:41:24;27.13;;;10.15;;
64351;SDS011;50680;52.626;-8.668;2022-12-24T11:43:58;32.30;;;13.15;;
64351;SDS011;50680;52.626;-8.668;2022-12-24T11:46:36;19.08;;;5.82;;
64351;SDS011;50680;52.626;-8.668;2022-12-24T11:49:12;7.00;;;2.25;;
64351;SDS011;50680;52.626;-8.668;2022-12-24T11:51:57;14.65;;;5.50;;
64351;SDS011;50680;52.626;-8.668;2022-12-24T11:54:26;6.15;;;3.00;;
64351;SDS011;50680;52.626;-8.668;2022-12-24T11:56:57;23.73;;;8.70;;
64351;SDS011;50680;52.626;-8.668;2022-12-24T12:02:48;6.55;;;1.77;;
64351;SDS011;50680;52.626;-8.668;2022-12-24T12:05:04;6.57;;;1.30;;
64351;SDS011;50680;52.626;-8.668;2022-12-24T12:07:38;8.65;;;2.95;;
64351;SDS011;50680;52.626;-8.668;2022-12-24T12:10:19;5.72;;;2.75;;
64351;SDS011;50680;52.626;-8.668;2022-12-24T12:12:55;17.50;;;9.15;;
64351;SDS011;50680;52.626;-8.668;2022-12-24T12:15:28;19.25;;;8.57;;
64351;SDS011;50680;52.626;-8.668;2022-12-24T12:25:57;21.45;;;9.05;;
64351;SDS011;50680;52.626;-8.668;2022-12-24T12:34:08;5.15;;;1.60;;
64351;SDS011;50680;52.626;-8.668;2022-12-24T12:36:59;9.55;;;4.40;;
64351;SDS011;50680;52.626;-8.668;2022-12-24T12:39:39;14.88;;;6.07;;
64351;SDS011;50680;52.626;-8.668;2022-12-24T12:50:51;3.85;;;1.30;;
64351;SDS011;50680;52.626;-8.668;2022-12-24T12:58:56;3.20;;;1.20;;
64351;SDS011;50680;52.626;-8.668;2022-12-24T13:01:49;1.98;;;1.10;;
64351;SDS011;50680;52.626;-8.668;2022-12-24T13:21:30;4.80;;;1.02;;
64351;SDS011;50680;52.626;-8.668;2022-12-24T13:24:03;4.30;;;0.90;;
64351;SDS011;50680;52.626;-8.668;2022-12-24T13:34:56;7.07;;;3.53;;
64351;SDS011;50680;52.626;-8.668;2022-12-24T13:42:50;3.55;;;1.50;;
64351;SDS011;50680;52.626;-8.668;2022-12-24T13:53:05;12.48;;;4.90;;
64351;SDS011;50680;52.626;-8.668;2022-12-24T13:55:52;6.35;;;3.17;;
64351;SDS011;50680;52.626;-8.668;2022-12-24T13:58:20;15.23;;;4.70;;
64351;SDS011;50680;52.626;-8.668;2022-12-24T14:00:56;9.02;;;4.82;;
64351;SDS011;50680;52.626;-8.668;2022-12-24T14:06:04;9.40;;;3.05;;
64351;SDS011;50680;52.626;-8.668;2022-12-24T14:11:09;5.78;;;2.35;;
64351;SDS011;50680;52.626;-8.668;2022-12-24T14:16:04;2.50;;;1.20;;
64351;SDS011;50680;52.626;-8.668;2022-12-24T14:18:32;4.00;;;0.90;;
64351;SDS011;50680;52.626;-8.668;2022-12-24T14:21:03;3.63;;;1.20;;
64351;SDS011;50680;52.626;-8.668;2022-12-24T14:26:12;1.17;;;0.82;;
64351;SDS011;50680;52.626;-8.668;2022-12-24T14:28:43;2.33;;;0.90;;
64351;SDS011;50680;52.626;-8.668;2022-12-24T14:31:16;2.00;;;0.88;;
64351;SDS011;50680;52.626;-8.668;2022-12-24T14:33:44;3.00;;;0.80;;
64351;SDS011;50680;52.626;-8.668;2022-12-24T14:36:12;1.25;;;0.70;;
64351;SDS011;50680;52.626;-8.668;2022-12-24T14:38:42;1.80;;;0.93;;
64351;SDS011;50680;52.626;-8.668;2022-12-24T14:49:03;4.20;;;1.55;;
64351;SDS011;50680;52.626;-8.668;2022-12-24T14:59:55;4.93;;;2.30;;
64351;SDS011;50680;52.626;-8.668;2022-12-24T15:07:56;2.30;;;1.50;;
64351;SDS011;50680;52.626;-8.668;2022-12-24T15:12:57;2.33;;;0.88;;
64351;SDS011;50680;52.626;-8.668;2022-12-24T15:15:29;1.75;;;0.82;;
64351;SDS011;50680;52.626;-8.668;2022-12-24T15:17:56;6.53;;;1.77;;
64351;SDS011;50680;52.626;-8.668;2022-12-24T15:20:25;5.22;;;1.95;;
64351;SDS011;50680;52.626;-8.668;2022-12-24T15:22:55;8.00;;;2.55;;
64351;SDS011;50680;52.626;-8.668;2022-12-24T15:25:25;9.98;;;2.90;;
64351;SDS011;50680;52.626;-8.668;2022-12-24T15:27:54;8.47;;;2.90;;
64351;SDS011;50680;52.626;-8.668;2022-12-24T15:30:22;3.83;;;1.85;;
64351;SDS011;50680;52.626;-8.668;2022-12-24T15:32:52;6.17;;;2.00;;
64351;SDS011;50680;52.626;-8.668;2022-12-24T15:38:00;1.10;;;1.00;;
64351;SDS011;50680;52.626;-8.668;2022-12-24T15:40:29;1.95;;;1.58;;
64351;SDS011;50680;52.626;-8.668;2022-12-24T15:42:58;8.02;;;2.67;;
64351;SDS011;50680;52.626;-8.668;2022-12-24T15:45:28;1.38;;;1.00;;
64351;SDS011;50680;52.626;-8.668;2022-12-24T15:48:07;3.75;;;1.00;;
64351;SDS011;50680;52.626;-8.668;2022-12-24T15:50:37;3.75;;;1.95;;
64351;SDS011;50680;52.626;-8.668;2022-12-24T15:53:12;11.55;;;7.55;;
64351;SDS011;50680;52.626;-8.668;2022-12-24T15:58:48;5.68;;;4.13;;
64351;SDS011;50680;52.626;-8.668;2022-12-24T16:06:18;5.57;;;2.72;;
64351;SDS011;50680;52.626;-8.668;2022-12-24T16:08:46;2.78;;;1.00;;
64351;SDS011;50680;52.626;-8.668;2022-12-24T16:11:17;1.70;;;1.10;;
64351;SDS011;50680;52.626;-8.668;2022-12-24T16:16:18;1.77;;;1.00;;
64351;SDS011;50680;52.626;-8.668;2022-12-24T16:21:29;3.45;;;1.38;;
64351;SDS011;50680;52.626;-8.668;2022-12-24T16:24:06;3.53;;;0.98;;
64351;SDS011;50680;52.626;-8.668;2022-12-24T16:26:41;3.85;;;0.80;;
64351;SDS011;50680;52.626;-8.668;2022-12-24T16:29:09;1.40;;;0.90;;
64351;SDS011;50680;52.626;-8.668;2022-12-24T16:31:44;0.98;;;0.90;;
64351;SDS011;50680;52.626;-8.668;2022-12-24T16:34:15;1.27;;;0.85;;
64351;SDS011;50680;52.626;-8.668;2022-12-24T16:36:44;2.33;;;0.90;;
64351;SDS011;50680;52.626;-8.668;2022-12-24T16:39:15;2.75;;;1.00;;
64351;SDS011;50680;52.626;-8.668;2022-12-24T16:41:51;4.63;;;0.70;;
64351;SDS011;50680;52.626;-8.668;2022-12-24T16:44:38;1.35;;;0.80;;
64351;SDS011;50680;52.626;-8.668;2022-12-24T16:47:05;2.75;;;0.85;;
64351;SDS011;50680;52.626;-8.668;2022-12-24T16:49:37;0.95;;;0.70;;
64351;SDS011;50680;52.626;-8.668;2022-12-24T16:52:04;2.65;;;1.00;;
64351;SDS011;50680;52.626;-8.668;2022-12-24T16:54:32;1.92;;;1.33;;
64351;SDS011;50680;52.626;-8.668;2022-12-24T16:56:58;1.55;;;0.90;;
64351;SDS011;50680;52.626;-8.668;2022-12-24T16:59:25;2.70;;;1.25;;
64351;SDS011;50680;52.626;-8.668;2022-12-24T17:01:52;2.15;;;0.88;;
64351;SDS011;50680;52.626;-8.668;2022-12-24T17:04:19;4.22;;;1.20;;
64351;SDS011;50680;52.626;-8.668;2022-12-24T17:06:47;5.07;;;1.08;;
64351;SDS011;50680;52.626;-8.668;2022-12-24T17:09:15;3.30;;;1.00;;
64351;SDS011;50680;52.626;-8.668;2022-12-24T17:11:43;5.95;;;0.90;;
64351;SDS011;50680;52.626;-8.668;2022-12-24T17:14:11;2.38;;;0.70;;
64351;SDS011;50680;52.626;-8.668;2022-12-24T17:16:45;4.68;;;1.00;;
64351;SDS011;50680;52.626;-8.668;2022-12-24T17:19:12;1.60;;;1.10;;
64351;SDS011;50680;52.626;-8.668;2022-12-24T17:21:39;3.97;;;1.88;;
64351;SDS011;50680;52.626;-8.668;2022-12-24T17:24:06;5.13;;;1.30;;
64351;SDS011;50680;52.626;-8.668;2022-12-24T17:26:34;2.72;;;1.20;;